Time;durP1;ratioP1;P1;durP2;ratioP2;P2;SDS_P1;SDS_P2;PMS_P1;PMS_P2;Temp;Humidity;BMP_temperature;BMP_pressure;BME280_temperature;BME280_humidity;BME280_pressure;Samples;Min_cycle;Max_cycle;Signal;HPM_P1;HPM_P2
2020/12/14 00:00:39;;;;;;;14.63;7.97;;;;;;;10.39;68.31;100418.16;5066006;28;20131;-77
2020/12/14 00:03:06;;;;;;;11.13;8.18;;;;;;;10.36;68.75;100407.72;5061290;28;20028;-77
2020/12/14 00:05:32;;;;;;;15.25;9.63;;;;;;;10.57;68.10;100416.72;5045647;28;20109;-78
2020/12/14 00:07:57;;;;;;;13.35;8.75;;;;;;;10.54;68.21;100408.97;5064217;28;20033;-77
2020/12/14 00:10:23;;;;;;;13.38;8.57;;;;;;;10.59;67.94;100398.31;5064515;28;20135;-79
2020/12/14 00:12:49;;;;;;;14.55;9.80;;;;;;;10.33;68.65;100397.25;5060260;28;20499;-78
2020/12/14 00:15:14;;;;;;;15.65;10.93;;;;;;;10.34;69.06;100398.91;5064509;28;20090;-78
2020/12/14 00:17:40;;;;;;;12.25;8.20;;;;;;;10.52;68.66;100400.19;5037797;28;20039;-78
2020/12/14 00:20:05;;;;;;;12.75;8.32;;;;;;;10.49;68.64;100392.47;5067789;28;20513;-78
2020/12/14 00:22:32;;;;;;;13.52;8.90;;;;;;;10.49;68.67;100389.75;5066659;28;20040;-77
2020/12/14 00:24:58;;;;;;;17.75;8.13;;;;;;;10.65;68.38;100396.66;5059997;28;20120;-79
2020/12/14 00:27:23;;;;;;;13.32;6.72;;;;;;;10.56;68.65;100390.56;5062142;28;20029;-79
2020/12/14 00:29:49;;;;;;;10.65;6.78;;;;;;;10.56;68.60;100387.84;5040534;28;20028;-77
2020/12/14 00:32:14;;;;;;;11.20;6.22;;;;;;;10.54;68.66;100389.94;5056617;28;20378;-78
2020/12/14 00:34:40;;;;;;;12.32;7.53;;;;;;;10.76;67.98;100401.47;5055411;28;20041;-77
2020/12/14 00:37:07;;;;;;;11.77;7.15;;;;;;;10.58;68.68;100404.78;5027870;28;20032;-78
2020/12/14 00:39:32;;;;;;;14.85;7.35;;;;;;;10.54;68.48;100406.25;5039159;28;20075;-79
2020/12/14 00:41:58;;;;;;;19.65;6.32;;;;;;;10.72;68.33;100397.47;5039419;28;20506;-77
2020/12/14 00:44:24;;;;;;;11.80;5.82;;;;;;;10.98;67.25;100393.09;5057284;28;20032;-78
2020/12/14 00:46:49;;;;;;;11.02;7.80;;;;;;;10.73;67.99;100389.09;5057364;28;20033;-78
2020/12/14 00:49:14;;;;;;;11.55;6.75;;;;;;;10.73;68.27;100383.66;5055480;28;20137;-78
2020/12/14 00:51:40;;;;;;;11.32;6.80;;;;;;;10.79;67.95;100383.91;5053597;28;20032;-77
2020/12/14 00:54:07;;;;;;;13.57;7.32;;;;;;;11.01;67.38;100393.50;5055194;28;20665;-78
2020/12/14 00:56:33;;;;;;;5.97;5.38;;;;;;;10.93;67.39;100396.44;5052698;28;20371;-77
2020/12/14 00:58:58;;;;;;;15.45;6.63;;;;;;;10.92;67.22;100378.44;5036682;28;20033;-77
2020/12/14 01:01:23;;;;;;;11.80;5.60;;;;;;;10.83;67.79;100385.13;5036224;28;20490;-77
2020/12/14 01:03:49;;;;;;;19.20;7.65;;;;;;;10.91;67.63;100385.75;5054601;28;20127;-78
2020/12/14 01:06:14;;;;;;;16.42;14.00;;;;;;;10.80;68.25;100375.53;5054133;28;20454;-78
2020/12/14 01:08:41;;;;;;;10.32;6.88;;;;;;;11.00;67.41;100374.66;5035962;28;20037;-79
2020/12/14 01:11:07;;;;;;;8.98;8.02;;;;;;;10.84;67.77;100374.03;5061637;28;20495;-77
2020/12/14 01:13:32;;;;;;;11.68;7.93;;;;;;;11.02;67.49;100373.41;5060707;28;20036;-79
2020/12/14 01:15:58;;;;;;;8.02;5.72;;;;;;;10.79;68.24;100368.41;5040627;28;20047;-78
2020/12/14 01:18:23;;;;;;;13.02;7.90;;;;;;;10.90;67.61;100369.66;5060726;28;20029;-78
2020/12/14 01:20:48;;;;;;;11.02;6.45;;;;;;;11.03;67.48;100375.09;5061865;28;20039;-78
2020/12/14 01:23:14;;;;;;;11.88;8.98;;;;;;;11.10;67.28;100375.91;5063337;28;20218;-77
2020/12/14 01:25:39;;;;;;;14.65;8.52;;;;;;;11.01;67.35;100360.84;5062989;28;20036;-79
2020/12/14 01:28:08;;;;;;;10.38;8.90;;;;;;;10.87;67.67;100370.06;5062116;28;20028;-80
2020/12/14 01:30:34;;;;;;;10.70;7.10;;;;;;;10.77;68.52;100372.38;5037857;28;20043;-78
2020/12/14 01:33:00;;;;;;;8.95;8.15;;;;;;;10.86;67.96;100366.53;5059471;28;20038;-77
2020/12/14 01:35:25;;;;;;;8.40;7.53;;;;;;;10.97;67.99;100369.63;5060033;28;20040;-78
2020/12/14 01:37:51;;;;;;;12.27;10.00;;;;;;;10.82;68.39;100357.09;5060578;28;20075;-76
2020/12/14 01:40:18;;;;;;;12.05;10.63;;;;;;;10.91;68.56;100355.84;5058564;28;20478;-78
2020/12/14 01:42:44;;;;;;;10.57;6.88;;;;;;;10.97;68.06;100356.03;5059545;28;20471;-78
2020/12/14 01:45:10;;;;;;;12.70;9.52;;;;;;;10.99;68.23;100345.78;5039370;28;20033;-77
2020/12/14 01:47:42;;;;;;;14.38;12.98;;;;;;;10.75;68.91;100346.25;5045804;28;20037;-77
2020/12/14 01:50:11;;;;;;;12.50;11.45;;;;;;;10.96;68.30;100351.66;5039444;28;20041;-76
2020/12/14 01:52:46;;;;;;;18.55;17.05;;;;;;;10.95;68.40;100350.81;5063296;28;20032;-78
2020/12/14 01:55:15;;;;;;;13.48;12.20;;;;;;;10.98;68.46;100360.44;5064827;28;20040;-77
2020/12/14 01:57:40;;;;;;;13.73;12.35;;;;;;;10.86;68.74;100368.38;5064399;28;20477;-78
2020/12/14 02:00:08;;;;;;;14.27;12.98;;;;;;;10.85;69.05;100367.56;5046329;28;20032;-79
2020/12/14 02:02:33;;;;;;;13.43;9.60;;;;;;;11.10;67.99;100365.00;5040756;28;20051;-78
2020/12/14 02:05:00;;;;;;;12.68;9.10;;;;;;;11.06;68.19;100357.50;5061565;28;20565;-78
2020/12/14 02:07:26;;;;;;;9.85;7.32;;;;;;;11.02;68.41;100357.09;5064429;28;20047;-77
2020/12/14 02:09:55;;;;;;;11.30;9.82;;;;;;;11.02;68.53;100367.97;5045813;28;20584;-77
2020/12/14 02:12:25;;;;;;;12.75;6.95;;;;;;;10.95;69.13;100361.69;5046657;28;20165;-78
2020/12/14 02:14:58;;;;;;;9.63;6.18;;;;;;;11.07;68.93;100361.88;5045126;28;20028;-77
2020/12/14 02:17:25;;;;;;;12.77;9.63;;;;;;;11.09;68.97;100374.25;5045498;28;20501;-78
2020/12/14 02:19:51;;;;;;;9.35;8.38;;;;;;;11.18;68.91;100361.22;5043628;28;20085;-79
2020/12/14 02:22:18;;;;;;;9.02;8.23;;;;;;;11.07;69.32;100354.56;5063458;28;20028;-79
2020/12/14 02:24:51;;;;;;;10.18;7.57;;;;;;;11.14;69.04;100359.16;5062767;28;20025;-78
2020/12/14 02:27:16;;;;;;;13.18;12.07;;;;;;;11.06;69.61;100362.94;5048406;28;20025;-78
2020/12/14 02:29:42;;;;;;;10.52;7.93;;;;;;;11.02;69.84;100356.25;5059291;28;20506;-78
2020/12/14 02:34:44;;;;;;;8.68;7.90;;;;;;;11.08;69.93;100347.25;5047127;28;20398;-86
2020/12/14 02:37:20;;;;;;;9.75;8.88;;;;;;;10.95;69.92;100344.53;5027909;28;20451;-82
2020/12/14 02:39:45;;;;;;;10.25;9.35;;;;;;;10.97;70.52;100346.00;5045006;28;20052;-82
2020/12/14 02:42:16;;;;;;;10.32;9.38;;;;;;;11.01;70.09;100349.97;5026549;28;20478;-83
2020/12/14 02:44:43;;;;;;;15.27;13.95;;;;;;;10.84;71.25;100344.13;5046604;28;20486;-85
2020/12/14 02:47:09;;;;;;;11.38;10.27;;;;;;;11.10;70.16;100342.41;5028491;28;20025;-84
2020/12/14 02:49:35;;;;;;;12.18;10.85;;;;;;;11.05;70.29;100332.16;5052007;28;20032;-82
2020/12/14 02:52:01;;;;;;;11.63;10.48;;;;;;;11.17;69.91;100331.50;5047816;28;20127;-83
2020/12/14 02:54:27;;;;;;;11.88;10.88;;;;;;;11.40;69.32;100334.59;5047029;28;20056;-78
2020/12/14 02:56:53;;;;;;;14.02;12.90;;;;;;;11.20;70.20;100334.66;5048407;28;20486;-83
2020/12/14 02:59:20;;;;;;;9.00;8.30;;;;;;;11.18;69.91;100328.56;5045585;28;20036;-81
2020/12/14 03:01:47;;;;;;;12.70;11.57;;;;;;;11.21;70.03;100317.25;5048185;28;20036;-84
2020/12/14 03:04:13;;;;;;;11.55;9.50;;;;;;;11.17;70.26;100323.34;5027935;28;20037;-83
2020/12/14 03:06:38;;;;;;;14.73;12.52;;;;;;;11.47;69.15;100310.06;5052024;28;20443;-79
2020/12/14 03:09:07;;;;;;;12.75;11.65;;;;;;;11.41;69.25;100319.09;5030070;28;20033;-82
2020/12/14 03:11:33;;;;;;;10.23;9.20;;;;;;;11.47;68.92;100324.50;5026183;28;20045;-83
2020/12/14 03:14:08;;;;;;;11.45;10.35;;;;;;;11.41;69.60;100317.19;5027762;28;20029;-79
2020/12/14 03:16:42;;;;;;;9.13;8.32;;;;;;;11.28;69.95;100323.53;5011692;28;20155;-83
2020/12/14 03:19:07;;;;;;;16.17;14.85;;;;;;;11.31;69.67;100314.09;5047346;28;20489;-81
2020/12/14 03:21:33;;;;;;;9.77;8.90;;;;;;;11.27;70.20;100321.03;5026779;28;20028;-81
2020/12/14 03:23:59;;;;;;;7.82;6.93;;;;;;;11.30;69.98;100320.59;5028414;28;20497;-81
2020/12/14 03:26:24;;;;;;;7.57;7.07;;;;;;;11.23;69.83;100319.78;5045281;28;20423;-82
2020/12/14 03:28:50;;;;;;;7.80;7.03;;;;;;;11.40;69.70;100317.41;5053829;28;20032;-79
2020/12/14 03:31:15;;;;;;;6.82;6.15;;;;;;;11.33;69.72;100314.72;5046808;28;20040;-80
2020/12/14 03:33:40;;;;;;;10.10;9.23;;;;;;;11.15;70.51;100317.28;5058310;28;20135;-80
2020/12/14 03:36:06;;;;;;;11.75;10.73;;;;;;;11.41;69.87;100319.91;5047870;28;20039;-79
2020/12/14 03:38:31;;;;;;;7.45;6.75;;;;;;;11.56;69.35;100310.66;5049336;28;20142;-78
2020/12/14 03:41:01;;;;;;;9.77;9.02;;;;;;;11.39;69.99;100311.13;5065115;28;20241;-80
2020/12/14 03:43:27;;;;;;;12.75;11.15;;;;;;;11.19;70.44;100311.19;5049574;28;20040;-80
2020/12/14 03:45:52;;;;;;;10.20;9.30;;;;;;;11.35;70.12;100307.16;5028912;28;20043;-79
2020/12/14 03:48:17;;;;;;;10.77;9.93;;;;;;;11.27;70.76;100304.69;5067025;28;20505;-80
2020/12/14 03:50:46;;;;;;;13.63;12.43;;;;;;;11.17;70.90;100307.88;5069294;28;20040;-80
2020/12/14 03:53:13;;;;;;;13.07;11.95;;;;;;;11.34;70.51;100307.38;5059060;28;20372;-80
2020/12/14 03:55:38;;;;;;;16.75;10.55;;;;;;;11.41;70.36;100294.59;5048461;28;20024;-80
2020/12/14 03:58:04;;;;;;;15.02;13.88;;;;;;;11.28;70.93;100311.81;5047548;28;20040;-81
2020/12/14 04:00:29;;;;;;;12.48;11.55;;;;;;;11.43;70.35;100309.66;5050763;28;20036;-81
2020/12/14 04:02:54;;;;;;;16.30;15.05;;;;;;;11.41;70.58;100306.31;5066459;28;20355;-82
2020/12/14 04:05:20;;;;;;;8.52;7.93;;;;;;;11.38;70.70;100303.19;5054705;28;20516;-82
2020/12/14 04:07:45;;;;;;;11.18;10.38;;;;;;;11.41;70.76;100302.75;5065428;28;20044;-80
2020/12/14 04:10:11;;;;;;;8.35;7.55;;;;;;;11.52;70.13;100310.25;5047306;28;20141;-80
2020/12/14 04:12:36;;;;;;;10.65;9.48;;;;;;;11.45;70.34;100304.00;5065207;28;20040;-82
2020/12/14 04:15:01;;;;;;;11.88;10.85;;;;;;;11.44;70.57;100294.16;5046809;28;20478;-83
2020/12/14 04:17:27;;;;;;;12.82;11.60;;;;;;;11.43;70.99;100285.16;5067090;28;20035;-81
2020/12/14 04:19:52;;;;;;;11.38;10.38;;;;;;;11.46;70.92;100284.72;5030168;28;20036;-83
2020/12/14 04:22:17;;;;;;;11.82;10.88;;;;;;;11.44;71.07;100294.97;5067587;28;20032;-83
2020/12/14 04:24:43;;;;;;;10.48;9.57;;;;;;;11.48;70.76;100298.13;5064938;28;20056;-81
2020/12/14 04:27:08;;;;;;;10.70;9.48;;;;;;;11.55;70.47;100295.38;5046197;28;20482;-82
2020/12/14 04:29:34;;;;;;;10.85;10.05;;;;;;;11.37;71.13;100298.78;5070141;28;20130;-80
2020/12/14 04:31:59;;;;;;;9.52;8.82;;;;;;;11.43;70.96;100304.22;5068487;28;20036;-80
2020/12/14 04:34:25;;;;;;;7.88;7.28;;;;;;;11.55;70.59;100289.94;5064686;28;20413;-80
2020/12/14 04:36:50;;;;;;;10.68;9.88;;;;;;;11.67;70.32;100292.81;5067428;28;20043;-79
2020/12/14 04:39:17;;;;;;;9.95;8.95;;;;;;;11.66;70.30;100305.56;5031078;28;20128;-81
2020/12/14 04:41:42;;;;;;;10.50;9.55;;;;;;;11.78;70.12;100311.19;5074576;28;20046;-80
2020/12/14 04:44:08;;;;;;;12.45;11.63;;;;;;;11.54;70.86;100296.41;5063713;28;20028;-81
2020/12/14 04:46:35;;;;;;;11.32;10.45;;;;;;;11.71;70.74;100254.03;5069723;28;20020;-82
2020/12/14 04:49:05;;;;;;;15.07;13.88;;;;;;;11.49;70.83;100234.44;5048383;28;20493;-82
2020/12/14 04:51:32;;;;;;;15.10;13.52;;;;;;;11.69;70.48;100215.25;5067890;28;20115;-80
2020/12/14 04:54:01;;;;;;;13.63;12.43;;;;;;;11.79;70.09;100220.22;5030602;28;20412;-82
2020/12/14 04:56:28;;;;;;;14.35;13.15;;;;;;;11.75;70.25;100252.50;5063588;28;20484;-84
2020/12/14 04:58:57;;;;;;;13.23;12.05;;;;;;;11.90;70.26;100270.47;5068689;28;20437;-81
2020/12/14 05:01:23;;;;;;;14.57;13.38;;;;;;;11.83;70.37;100279.50;5029423;28;20403;-82
2020/12/14 05:03:49;;;;;;;13.38;12.18;;;;;;;11.81;70.15;100270.72;5061736;28;20202;-82
2020/12/14 05:06:15;;;;;;;16.17;14.88;;;;;;;11.99;69.94;100278.19;5063116;28;20052;-82
2020/12/14 05:08:41;;;;;;;18.00;16.58;;;;;;;11.82;70.84;100274.28;5051728;28;20158;-84
2020/12/14 05:11:08;;;;;;;12.55;11.45;;;;;;;11.88;70.67;100278.84;5062431;28;20052;-81
2020/12/14 05:13:34;;;;;;;16.55;15.15;;;;;;;11.85;70.94;100257.50;5044308;28;20479;-86
2020/12/14 05:15:59;;;;;;;12.57;11.52;;;;;;;11.86;70.74;100256.44;5063332;28;20082;-80
2020/12/14 05:18:26;;;;;;;14.60;13.40;;;;;;;11.87;71.08;100260.00;5065588;28;20520;-81
2020/12/14 05:21:00;;;;;;;14.95;13.77;;;;;;;11.74;71.30;100260.91;5065960;28;20035;-84
2020/12/14 05:23:26;;;;;;;15.88;14.55;;;;;;;11.77;71.13;100269.50;5071738;28;20048;-83
2020/12/14 05:26:03;;;;;;;12.65;11.50;;;;;;;11.98;70.35;100272.94;5042365;28;20040;-80
2020/12/14 05:28:28;;;;;;;15.80;14.50;;;;;;;11.93;70.86;100259.16;5070023;28;20032;-83
2020/12/14 05:30:53;;;;;;;15.35;14.00;;;;;;;12.05;70.64;100260.13;5062449;28;20040;-80
2020/12/14 05:33:22;;;;;;;14.73;13.32;;;;;;;11.94;70.98;100261.66;5046888;28;20464;-83
2020/12/14 05:35:48;;;;;;;15.65;14.20;;;;;;;11.83;71.22;100259.59;5066728;28;20024;-81
2020/12/14 05:38:18;;;;;;;18.88;17.23;;;;;;;11.94;70.95;100260.81;5049774;28;20040;-82
2020/12/14 05:40:46;;;;;;;15.23;13.98;;;;;;;11.97;71.08;100268.53;5071728;28;20028;-81
2020/12/14 05:43:16;;;;;;;15.93;14.50;;;;;;;12.16;70.41;100259.41;5067632;28;20046;-80
2020/12/14 05:45:43;;;;;;;15.17;13.67;;;;;;;11.99;70.91;100280.91;5071832;28;20493;-82
2020/12/14 05:48:35;;;;;;;16.33;14.77;;;;;;;12.06;70.92;100275.41;5067723;28;20025;-80
2020/12/14 05:51:05;;;;;;;16.38;14.88;;;;;;;11.90;71.69;100265.00;5048943;28;20498;-82
2020/12/14 05:53:51;;;;;;;16.45;14.48;;;;;;;12.14;70.68;100261.53;5067526;28;20600;-82
2020/12/14 05:56:17;;;;;;;18.10;16.30;;;;;;;12.21;70.54;100257.91;5046295;28;20032;-82
2020/12/14 05:58:44;;;;;;;21.80;19.58;;;;;;;12.04;70.97;100272.06;5065140;28;20036;-82
2020/12/14 06:01:10;;;;;;;18.25;16.27;;;;;;;12.16;71.02;100267.56;5071691;28;20045;-81
2020/12/14 06:03:36;;;;;;;19.10;17.42;;;;;;;12.13;71.23;100254.38;5067268;28;20111;-81
2020/12/14 06:06:10;;;;;;;18.73;16.95;;;;;;;12.14;71.26;100258.78;5034925;28;20044;-81
2020/12/14 06:08:44;;;;;;;18.33;16.65;;;;;;;12.01;71.65;100250.72;5068428;28;20094;-79
2020/12/14 06:11:11;;;;;;;21.50;19.20;;;;;;;12.15;71.25;100243.25;5068544;28;20047;-81
2020/12/14 06:13:48;;;;;;;22.25;20.13;;;;;;;12.28;70.75;100245.91;5066202;28;20109;-82
2020/12/14 06:16:19;;;;;;;25.70;23.50;;;;;;;12.28;71.09;100247.75;5066833;28;20027;-84
2020/12/14 06:18:45;;;;;;;18.80;16.88;;;;;;;12.56;69.87;100238.28;5055632;28;20024;-82
2020/12/14 06:21:16;;;;;;;22.10;20.02;;;;;;;12.39;70.57;100236.16;5066543;28;20322;-82
2020/12/14 06:23:45;;;;;;;22.83;20.73;;;;;;;12.43;70.82;100234.63;5050411;28;20114;-84
2020/12/14 06:26:11;;;;;;;22.70;20.35;;;;;;;12.06;71.72;100231.78;5065836;28;20601;-86
2020/12/14 06:28:37;;;;;;;23.33;20.98;;;;;;;12.56;70.56;100251.94;5050609;28;20155;-83
2020/12/14 06:31:03;;;;;;;23.77;21.50;;;;;;;12.53;70.42;100245.88;5065702;28;20036;-85
2020/12/14 06:33:36;;;;;;;24.73;22.27;;;;;;;12.40;71.21;100261.53;5050301;28;20052;-84
2020/12/14 06:36:18;;;;;;;25.08;22.67;;;;;;;12.64;70.17;100248.94;5065779;28;20074;-82
2020/12/14 06:38:45;;;;;;;23.60;21.27;;;;;;;12.52;70.70;100262.47;5068983;28;20035;-83
2020/12/14 06:41:15;;;;;;;22.10;19.85;;;;;;;12.40;71.34;100267.81;5066249;28;20072;-83
2020/12/14 06:43:43;;;;;;;23.58;21.20;;;;;;;12.68;70.50;100250.13;5067684;28;20051;-82
2020/12/14 06:46:09;;;;;;;27.90;24.90;;;;;;;12.63;71.13;100263.63;5068007;28;20037;-82
2020/12/14 06:48:45;;;;;;;29.60;23.90;;;;;;;12.81;70.17;100260.09;5049387;28;20097;-81
2020/12/14 06:51:15;;;;;;;30.00;27.08;;;;;;;12.94;69.75;100259.13;5064055;28;20124;-82
2020/12/14 06:53:48;;;;;;;28.55;25.65;;;;;;;12.97;69.72;100256.75;5066186;28;20033;-81
2020/12/14 06:56:15;;;;;;;25.20;22.08;;;;;;;12.84;70.28;100260.47;5065893;28;20440;-82
2020/12/14 06:58:44;;;;;;;28.48;25.63;;;;;;;12.85;70.48;100267.59;5067143;28;20032;-84
2020/12/14 07:01:33;;;;;;;27.58;25.08;;;;;;;13.06;69.80;100257.31;5066893;28;20375;-81
2020/12/14 07:04:04;;;;;;;28.55;25.73;;;;;;;12.83;70.93;100255.25;5073044;28;20040;-80
2020/12/14 07:06:30;;;;;;;27.38;24.77;;;;;;;12.67;71.50;100262.94;5070185;28;20077;-82
2020/12/14 07:08:56;;;;;;;25.38;22.65;;;;;;;12.97;70.51;100266.84;5065754;28;20040;-81
2020/12/14 07:11:23;;;;;;;24.75;22.20;;;;;;;12.96;70.81;100265.19;5072508;28;20035;-81
2020/12/14 07:13:50;;;;;;;28.23;25.42;;;;;;;13.14;70.02;100258.91;5064870;28;20054;-83
2020/12/14 07:16:17;;;;;;;21.70;19.50;;;;;;;13.01;70.46;100259.88;5069786;28;21222;-82
2020/12/14 07:18:45;;;;;;;21.33;19.30;;;;;;;13.16;69.93;100273.13;5066524;28;20031;-81
2020/12/14 07:21:14;;;;;;;23.48;21.20;;;;;;;13.01;70.35;100268.06;5050594;28;20044;-82
2020/12/14 07:23:42;;;;;;;24.25;22.02;;;;;;;13.19;69.92;100272.69;5065162;28;20466;-80
2020/12/14 07:26:09;;;;;;;26.98;24.55;;;;;;;13.17;69.90;100281.09;5067527;28;20031;-84
2020/12/14 07:28:49;;;;;;;27.77;25.08;;;;;;;13.08;70.50;100277.88;5068083;28;20379;-81
2020/12/14 07:31:16;;;;;;;26.42;23.83;;;;;;;13.14;70.33;100286.19;5062102;28;20474;-83
2020/12/14 07:33:54;;;;;;;25.73;23.23;;;;;;;13.17;70.37;100280.28;5067897;28;20041;-80
2020/12/14 07:36:20;;;;;;;26.83;24.02;;;;;;;13.22;70.18;100278.53;5049543;28;20037;-82
2020/12/14 07:38:53;;;;;;;28.02;25.20;;;;;;;13.32;69.80;100294.38;5064476;28;20043;-80
2020/12/14 07:41:19;;;;;;;23.30;20.90;;;;;;;13.28;70.15;100290.44;5064904;28;20094;-80
2020/12/14 07:43:53;;;;;;;24.70;22.10;;;;;;;13.39;69.68;100288.88;5063493;28;20487;-80
2020/12/14 07:46:26;;;;;;;29.23;25.55;;;;;;;13.40;69.60;100296.00;5064771;28;20024;-82
2020/12/14 07:49:09;;;;;;;29.83;26.83;;;;;;;13.46;69.48;100289.63;5061687;28;20509;-83
2020/12/14 07:51:45;;;;;;;25.33;22.90;;;;;;;13.46;69.29;100299.72;5063190;28;20127;-83
2020/12/14 07:54:19;;;;;;;30.63;27.40;;;;;;;13.47;69.42;100301.38;5065846;28;20021;-83
2020/12/14 07:59:26;;;;;;;25.60;22.90;;;;;;;13.53;69.40;100305.94;5064698;28;20064;-81
2020/12/14 08:01:52;;;;;;;26.83;24.25;;;;;;;13.57;69.46;100318.06;5064360;28;20028;-82
2020/12/14 08:04:22;;;;;;;25.45;22.75;;;;;;;13.53;69.75;100312.25;5068512;28;20494;-83
2020/12/14 08:06:49;;;;;;;26.15;23.45;;;;;;;13.35;70.04;100315.81;5061969;28;20529;-85
2020/12/14 08:09:18;;;;;;;26.02;23.27;;;;;;;13.54;69.65;100313.91;5068957;28;20028;-82
2020/12/14 08:11:49;;;;;;;27.15;24.38;;;;;;;13.50;69.80;100309.97;5062291;28;20033;-83
2020/12/14 08:14:17;;;;;;;26.55;23.90;;;;;;;13.63;69.62;100322.63;5064145;28;20158;-81
2020/12/14 08:16:44;;;;;;;26.13;23.63;;;;;;;13.66;69.46;100313.16;5063320;28;20033;-83
2020/12/14 08:19:18;;;;;;;23.45;20.92;;;;;;;13.76;69.42;100318.88;5043767;28;20443;-81
2020/12/14 08:22:02;;;;;;;25.30;22.42;;;;;;;13.60;69.86;100314.88;5065728;28;20025;-83
2020/12/14 08:24:28;;;;;;;25.17;22.58;;;;;;;13.73;69.75;100316.59;5063836;28;20036;-80
2020/12/14 08:27:13;;;;;;;23.38;20.98;;;;;;;13.78;69.75;100314.84;5068534;28;20028;-81
2020/12/14 08:29:54;;;;;;;25.15;20.52;;;;;;;13.88;69.58;100316.22;5064644;28;20033;-82
2020/12/14 08:32:20;;;;;;;21.73;19.50;;;;;;;13.82;69.27;100314.41;5039222;28;20463;-81
2020/12/14 08:34:45;;;;;;;20.38;18.38;;;;;;;13.84;69.62;100318.56;5032771;28;20094;-82
2020/12/14 08:37:10;;;;;;;22.10;20.10;;;;;;;13.85;69.64;100320.22;5061182;28;20032;-82
2020/12/14 08:39:36;;;;;;;23.45;18.02;;;;;;;13.89;69.46;100320.63;5060743;28;20560;-81
2020/12/14 08:42:06;;;;;;;20.02;18.00;;;;;;;14.03;69.11;100319.34;5030367;28;20040;-80
2020/12/14 08:44:32;;;;;;;19.50;17.53;;;;;;;13.99;69.57;100325.53;5043123;28;20028;-80
2020/12/14 08:46:58;;;;;;;17.17;15.57;;;;;;;14.01;69.21;100323.38;5068568;28;20047;-82
2020/12/14 08:49:23;;;;;;;19.45;17.50;;;;;;;13.95;69.68;100331.44;5060219;28;20032;-81
2020/12/14 08:51:49;;;;;;;16.35;14.50;;;;;;;14.06;69.15;100345.41;5047152;28;20033;-81
2020/12/14 08:54:17;;;;;;;17.40;15.70;;;;;;;14.19;69.22;100338.91;5042101;28;20032;-82
2020/12/14 08:56:43;;;;;;;15.68;14.13;;;;;;;13.89;70.11;100343.31;5047099;28;20476;-82
2020/12/14 08:59:19;;;;;;;15.43;14.02;;;;;;;14.17;69.60;100352.81;5064000;28;20036;-82
2020/12/14 09:02:04;;;;;;;15.02;13.52;;;;;;;14.23;69.35;100353.78;5061771;28;20471;-81
2020/12/14 09:04:37;;;;;;;15.10;13.55;;;;;;;14.38;69.23;100335.03;5058853;28;20051;-84
2020/12/14 09:07:04;;;;;;;13.82;12.40;;;;;;;14.42;68.93;100343.59;5045744;28;20033;-80
2020/12/14 09:09:35;;;;;;;15.93;13.95;;;;;;;14.53;68.93;100341.97;5066424;28;20032;-86
2020/12/14 09:12:11;;;;;;;14.20;12.85;;;;;;;14.65;68.54;100356.53;5063693;28;20030;-82
2020/12/14 09:14:37;;;;;;;13.65;12.35;;;;;;;14.70;68.11;100369.50;5051022;28;20047;-82
2020/12/14 09:17:14;;;;;;;13.82;12.40;;;;;;;14.60;68.44;100353.66;5065590;28;20032;-83
2020/12/14 09:19:40;;;;;;;12.68;11.40;;;;;;;14.70;68.21;100369.50;5069466;28;20039;-85
2020/12/14 09:22:06;;;;;;;11.10;9.95;;;;;;;14.64;68.39;100374.88;5048908;28;20029;-83
2020/12/14 09:24:34;;;;;;;10.35;9.20;;;;;;;14.59;68.19;100369.22;5073033;28;20032;-83
2020/12/14 09:27:07;;;;;;;9.95;8.93;;;;;;;14.71;68.09;100374.75;5067034;28;20024;-83
2020/12/14 09:29:33;;;;;;;12.15;9.82;;;;;;;14.89;67.60;100373.84;5073574;28;20069;-86
2020/12/14 09:32:00;;;;;;;10.10;9.23;;;;;;;14.97;67.80;100378.94;5062525;28;20032;-84
2020/12/14 09:34:26;;;;;;;10.32;8.80;;;;;;;15.04;67.23;100371.47;5053001;28;20064;-84
2020/12/14 09:36:53;;;;;;;12.65;10.18;;;;;;;15.08;66.99;100366.34;5076377;28;20115;-83
2020/12/14 09:39:20;;;;;;;10.80;9.80;;;;;;;15.17;66.66;100369.56;5067170;28;20024;-83
2020/12/14 09:41:45;;;;;;;10.07;9.13;;;;;;;15.27;66.22;100378.00;5068333;28;20024;-84
2020/12/14 09:44:11;;;;;;;14.40;9.45;;;;;;;15.37;65.68;100375.50;5070332;28;20094;-83
2020/12/14 09:46:36;;;;;;;9.55;8.75;;;;;;;15.52;65.10;100382.38;5066232;28;20116;-84
2020/12/14 09:49:05;;;;;;;12.80;11.15;;;;;;;15.69;64.91;100382.47;5067136;28;20036;-84
2020/12/14 09:51:33;;;;;;;12.18;9.90;;;;;;;15.66;65.02;100370.09;5065408;28;20130;-83
2020/12/14 09:53:59;;;;;;;10.82;9.82;;;;;;;16.08;64.14;100378.09;5065442;28;20493;-82
2020/12/14 09:56:24;;;;;;;11.00;9.88;;;;;;;16.08;63.68;100386.31;5066213;28;20306;-85
2020/12/14 09:58:50;;;;;;;9.95;9.15;;;;;;;16.27;63.20;100380.63;5044704;28;20757;-82
2020/12/14 10:01:15;;;;;;;9.45;7.72;;;;;;;16.82;61.94;100382.72;5066667;28;20043;-82
2020/12/14 10:03:42;;;;;;;8.82;7.95;;;;;;;16.96;61.47;100380.50;5061633;28;20569;-82
2020/12/14 10:06:13;;;;;;;8.73;6.90;;;;;;;17.47;60.22;100385.91;5065404;28;20040;-87
2020/12/14 10:08:40;;;;;;;7.32;6.65;;;;;;;17.69;58.86;100385.09;5068140;28;20131;-84
2020/12/14 10:11:07;;;;;;;9.23;5.35;;;;;;;18.09;56.66;100389.47;5048603;28;20619;-84
2020/12/14 10:13:33;;;;;;;6.03;5.00;;;;;;;17.61;57.96;100396.53;5073860;28;20028;-82
2020/12/14 10:15:59;;;;;;;5.32;4.82;;;;;;;17.27;58.96;100402.09;5070203;28;20036;-81
2020/12/14 10:18:25;;;;;;;6.32;5.10;;;;;;;17.16;59.74;100401.97;5073431;28;20032;-84
2020/12/14 10:20:51;;;;;;;5.40;5.00;;;;;;;16.86;60.12;100413.28;5069429;28;20060;-84
2020/12/14 10:23:16;;;;;;;5.30;4.80;;;;;;;16.67;61.03;100417.28;5068234;28;20574;-83
2020/12/14 10:25:42;;;;;;;6.65;5.93;;;;;;;16.47;61.64;100411.19;5056321;28;20040;-81
2020/12/14 10:28:07;;;;;;;7.68;4.28;;;;;;;16.17;62.91;100418.84;5070698;28;20031;-82
2020/12/14 10:30:35;;;;;;;5.10;4.57;;;;;;;16.07;63.11;100422.22;5074345;28;20451;-83
2020/12/14 10:33:03;;;;;;;6.93;4.32;;;;;;;16.22;62.66;100417.03;5068844;28;20041;-82
2020/12/14 10:35:28;;;;;;;5.25;4.85;;;;;;;16.20;63.72;100410.94;5071697;28;20037;-81
2020/12/14 10:37:55;;;;;;;9.02;8.32;;;;;;;16.65;62.53;100418.41;5071882;28;20382;-82
2020/12/14 10:40:22;;;;;;;8.35;6.35;;;;;;;16.49;62.18;100418.38;5070048;28;20058;-82
2020/12/14 10:42:48;;;;;;;9.60;6.88;;;;;;;16.71;61.31;100413.81;5055162;28;20067;-84
2020/12/14 10:45:13;;;;;;;6.72;6.13;;;;;;;16.73;61.36;100421.78;5070433;28;20499;-84
2020/12/14 10:47:39;;;;;;;6.80;5.85;;;;;;;16.82;61.45;100437.63;5051770;28;20044;-82
2020/12/14 10:50:06;;;;;;;7.18;4.63;;;;;;;16.65;61.36;100425.78;5052151;28;20033;-82
2020/12/14 10:52:31;;;;;;;8.65;6.03;;;;;;;16.78;60.78;100436.47;5049922;28;20054;-86
2020/12/14 10:54:57;;;;;;;5.05;4.55;;;;;;;16.94;60.46;100425.75;5068734;28;20505;-84
2020/12/14 10:57:22;;;;;;;4.47;4.00;;;;;;;16.93;60.64;100435.94;5054907;28;20049;-81
2020/12/14 10:59:48;;;;;;;7.63;4.80;;;;;;;16.94;60.27;100434.00;5069174;28;20032;-85
2020/12/14 11:02:14;;;;;;;8.40;4.10;;;;;;;17.02;60.36;100436.34;5069239;28;20151;-83
2020/12/14 11:04:39;;;;;;;3.78;3.30;;;;;;;16.99;59.97;100425.84;5064476;28;20121;-81
2020/12/14 11:07:08;;;;;;;3.97;3.00;;;;;;;17.29;59.38;100436.50;5073654;28;20044;-82
2020/12/14 11:09:35;;;;;;;5.45;3.95;;;;;;;17.44;58.89;100437.81;5071969;28;20105;-83
2020/12/14 11:12:03;;;;;;;6.15;4.57;;;;;;;17.37;58.52;100438.00;5067557;28;20561;-83
2020/12/14 11:14:29;;;;;;;6.68;4.00;;;;;;;17.16;59.06;100445.94;5063472;28;20036;-82
2020/12/14 11:16:55;;;;;;;4.75;3.38;;;;;;;16.95;59.79;100433.75;5050046;28;20033;-84
2020/12/14 11:19:21;;;;;;;6.53;4.60;;;;;;;16.99;59.86;100437.69;5077272;28;20406;-83
2020/12/14 11:21:57;;;;;;;7.90;4.45;;;;;;;17.22;59.18;100437.75;5069464;28;20035;-83